Time;durP1;ratioP1;P1;durP2;ratioP2;P2;SDS_P1;SDS_P2;PMS_P1;PMS_P2;Temp;Humidity;BMP_temperature;BMP_pressure;BME280_temperature;BME280_humidity;BME280_pressure;Samples;Min_cycle;Max_cycle;Signal;HPM_P1;HPM_P2
2022/11/15 00:02:01;;;;;;;;;;;;;;;13.81;74.08;102081.09;5004934;28;102386;-50
2022/11/15 00:04:27;;;;;;;84.47;79.45;;;;;;;13.83;73.78;102073.47;4996038;28;102140;-50
2022/11/15 00:06:53;;;;;;;83.80;78.72;;;;;;;13.84;73.99;102075.13;5004762;28;102163;-51
2022/11/15 00:09:20;;;;;;;83.15;78.15;;;;;;;13.83;74.05;102068.81;5001872;28;103874;-50
2022/11/15 00:11:46;;;;;;;80.18;75.50;;;;;;;13.82;73.74;102071.84;5002476;28;104445;-50
2022/11/15 00:14:14;;;;;;;85.05;79.95;;;;;;;13.83;73.89;102073.47;5003773;28;102416;-50
2022/11/15 00:16:41;;;;;;;83.85;78.85;;;;;;;13.82;73.77;102069.09;4997843;28;102363;-50
2022/11/15 00:19:07;;;;;;;80.88;76.05;;;;;;;13.83;73.89;102070.75;5003161;28;103943;-50
2022/11/15 00:21:37;;;;;;;94.40;88.90;;;;;;;13.82;73.96;102071.84;5000995;28;102238;-50
2022/11/15 00:24:03;;;;;;;84.78;79.85;;;;;;;13.81;74.00;102068.28;5003499;28;102183;-50
2022/11/15 00:26:30;;;;;;;88.72;83.63;;;;;;;13.80;73.85;102069.34;4997714;28;102322;-50
2022/11/15 00:28:57;;;;;;;85.55;80.63;;;;;;;13.81;73.86;102060.06;4995735;28;104087;-50
2022/11/15 00:31:25;;;;;;;79.60;74.88;;;;;;;13.81;73.82;102053.75;4996066;28;101993;-50
2022/11/15 00:33:53;;;;;;;90.65;85.32;;;;;;;13.80;73.91;102058.41;5002659;28;104301;-50
2022/11/15 00:36:19;;;;;;;86.07;81.05;;;;;;;13.80;74.40;102052.91;5009868;28;102728;-50
2022/11/15 00:38:47;;;;;;;83.30;78.50;;;;;;;13.80;73.96;102057.56;5005097;28;104087;-50
2022/11/15 00:41:13;;;;;;;85.72;80.68;;;;;;;13.79;74.00;102050.47;5008662;28;102468;-50
2022/11/15 00:43:43;;;;;;;89.03;83.85;;;;;;;13.81;73.91;102053.75;4999282;28;102414;-50
2022/11/15 00:46:10;;;;;;;84.40;79.43;;;;;;;13.82;73.97;102044.47;5012010;28;102720;-50
2022/11/15 00:48:38;;;;;;;78.07;73.53;;;;;;;13.79;74.09;102051.28;4995477;28;104714;-50
2022/11/15 00:51:05;;;;;;;81.85;77.07;;;;;;;13.81;73.79;102048.28;4999657;28;102212;-50
2022/11/15 00:53:31;;;;;;;82.53;77.70;;;;;;;13.80;74.07;102046.63;5003994;28;102490;-50
2022/11/15 00:55:58;;;;;;;88.25;83.20;;;;;;;13.80;73.94;102057.56;5007907;28;102925;-50
2022/11/15 00:58:25;;;;;;;80.55;75.85;;;;;;;13.81;73.81;102048.28;4995308;28;104574;-50
2022/11/15 01:00:51;;;;;;;86.55;81.60;;;;;;;13.80;73.92;102043.91;5002943;28;102251;-50
2022/11/15 01:03:18;;;;;;;86.95;81.72;;;;;;;13.79;73.73;102045.00;4995673;28;102357;-50
2022/11/15 01:05:46;;;;;;;87.22;82.10;;;;;;;13.80;74.01;102046.63;5008630;28;102550;-50
2022/11/15 01:08:13;;;;;;;87.00;81.93;;;;;;;13.79;73.91;102036.78;5006417;28;103925;-50
2022/11/15 01:10:41;;;;;;;81.82;77.13;;;;;;;13.80;73.87;102039.25;4984825;28;102044;-50
2022/11/15 01:13:08;;;;;;;82.35;77.75;;;;;;;13.80;73.84;102041.16;4975705;28;102170;-50
2022/11/15 01:15:40;;;;;;;85.63;80.80;;;;;;;13.79;73.79;102039.50;4986939;28;102482;-50
2022/11/15 01:18:07;;;;;;;83.47;78.47;;;;;;;13.79;73.79;102040.34;4984086;28;103942;-50
2022/11/15 01:20:39;;;;;;;79.40;74.77;;;;;;;13.79;73.91;102039.50;4988525;28;102761;-50
2022/11/15 01:23:08;;;;;;;85.53;80.47;;;;;;;13.78;73.89;102029.66;4998777;28;102295;-50
2022/11/15 01:25:34;;;;;;;62.47;58.90;;;;;;;13.78;73.89;102032.41;5007138;28;102090;-50
2022/11/15 01:28:01;;;;;;;82.88;78.00;;;;;;;13.77;73.86;102030.72;5004798;28;103855;-50
2022/11/15 01:30:27;;;;;;;83.15;78.45;;;;;;;13.77;73.91;102031.56;5007614;28;102165;-50
2022/11/15 01:32:55;;;;;;;88.28;83.13;;;;;;;13.77;73.75;102019.78;4994736;28;102592;-50
2022/11/15 01:35:22;;;;;;;82.32;77.63;;;;;;;13.76;74.00;102013.50;5003453;28;102156;-50
2022/11/15 01:37:49;;;;;;;83.85;79.20;;;;;;;13.78;73.71;102015.97;4994322;28;104192;-50
2022/11/15 01:40:17;;;;;;;84.22;79.55;;;;;;;13.77;73.84;102017.06;5002400;28;102460;-50
2022/11/15 01:42:48;;;;;;;85.97;81.10;;;;;;;13.78;73.72;102021.47;4983054;28;102736;-51
2022/11/15 01:45:15;;;;;;;84.22;79.35;;;;;;;13.78;73.59;102008.59;4987830;28;102244;-50
2022/11/15 01:47:47;;;;;;;88.85;83.85;;;;;;;13.76;73.86;102012.66;4988778;28;104096;-51
2022/11/15 01:50:18;;;;;;;82.55;77.93;;;;;;;13.77;73.80;102003.38;4986962;28;103295;-51
2022/11/15 01:52:46;;;;;;;77.57;73.05;;;;;;;13.77;73.89;102006.94;4986776;28;102258;-50
2022/11/15 01:55:19;;;;;;;82.50;77.72;;;;;;;13.77;73.89;102003.38;4982530;28;102779;-50
2022/11/15 01:57:48;;;;;;;87.28;82.35;;;;;;;13.77;73.75;102004.19;4976310;28;104045;-50
2022/11/15 02:00:15;;;;;;;78.70;74.15;;;;;;;13.77;73.98;102004.19;4976035;28;102526;-50
2022/11/15 02:02:43;;;;;;;85.80;80.90;;;;;;;13.77;73.75;102000.63;4976663;28;102612;-50
2022/11/15 02:05:10;;;;;;;83.25;78.50;;;;;;;13.77;73.80;101997.91;4981021;28;102759;-50
2022/11/15 02:07:37;;;;;;;85.97;81.03;;;;;;;13.77;73.98;102008.84;4982333;28;104020;-51
2022/11/15 02:10:07;;;;;;;84.97;80.28;;;;;;;13.78;73.86;101999.56;4984991;28;102505;-50
2022/11/15 02:12:35;;;;;;;88.88;83.90;;;;;;;13.78;73.78;102002.31;4976426;28;102524;-51
2022/11/15 02:15:06;;;;;;;83.05;78.47;;;;;;;13.80;73.73;102002.84;4977084;28;102707;-50
2022/11/15 02:17:44;;;;;;;;;;;;;;;13.77;74.02;101997.91;4980483;28;103475;-49
2022/11/15 02:20:47;;;;;;;75.65;71.32;;;;;;;13.74;73.90;101998.41;4981755;28;102645;-50
2022/11/15 02:23:42;;;;;;;81.95;77.25;;;;;;;13.77;73.92;101997.91;4977352;28;102110;-50
2022/11/15 02:26:27;;;;;;;83.13;78.50;;;;;;;13.77;73.96;101998.72;4980305;28;102397;-50
2022/11/15 02:29:01;;;;;;;89.57;84.47;;;;;;;13.79;73.85;102006.69;4979980;28;108063;-51
2022/11/15 02:31:36;;;;;;;84.50;79.78;;;;;;;13.76;73.64;101996.25;4977481;28;102608;-50
2022/11/15 02:34:12;;;;;;;86.95;82.10;;;;;;;13.78;73.76;101994.09;4982073;28;102800;-50
2022/11/15 02:36:45;;;;;;;85.38;80.57;;;;;;;13.77;73.58;101997.91;4978463;28;102266;-50
2022/11/15 02:39:23;;;;;;;81.35;76.75;;;;;;;13.76;74.04;101999.00;4978987;28;103921;-50
2022/11/15 02:41:55;;;;;;;84.47;79.88;;;;;;;13.77;73.70;101992.44;4977849;28;102548;-50
2022/11/15 02:44:29;;;;;;;82.90;78.22;;;;;;;13.77;73.80;101986.94;4983860;28;102524;-50
2022/11/15 02:47:13;;;;;;;82.35;77.85;;;;;;;13.77;73.57;101976.81;4979475;28;102743;-50
2022/11/15 02:49:44;;;;;;;83.38;78.70;;;;;;;13.76;73.92;101980.66;4980780;28;103979;-50
2022/11/15 02:52:15;;;;;;;86.20;81.38;;;;;;;13.76;73.69;101974.38;4977695;28;102521;-50
2022/11/15 02:54:52;;;;;;;87.78;82.90;;;;;;;13.78;73.67;101974.94;4977663;28;102129;-51
2022/11/15 02:57:26;;;;;;;87.25;82.40;;;;;;;13.76;73.51;101972.44;4980943;28;102470;-50
2022/11/15 03:00:06;;;;;;;85.18;80.35;;;;;;;13.77;73.84;101976.00;4976950;28;103929;-50
2022/11/15 03:02:48;;;;;;;86.80;82.00;;;;;;;13.78;73.54;101977.69;4977561;28;102458;-51
2022/11/15 03:05:23;;;;;;;87.95;83.07;;;;;;;13.77;73.78;101967.81;4975771;28;102360;-50
2022/11/15 03:07:58;;;;;;;84.47;79.82;;;;;;;13.76;73.71;101963.41;4990250;28;102363;-51
2022/11/15 03:10:32;;;;;;;84.07;79.43;;;;;;;13.76;73.78;101961.50;4995252;28;104048;-50
2022/11/15 03:13:09;;;;;;;93.03;87.85;;;;;;;13.77;73.63;101959.59;5003158;28;102716;-50
2022/11/15 03:15:39;;;;;;;88.38;83.47;;;;;;;13.76;73.78;101957.94;5011803;28;102394;-50
2022/11/15 03:18:13;;;;;;;85.10;80.43;;;;;;;13.76;73.78;101957.94;5012403;28;102333;-50
2022/11/15 03:20:40;;;;;;;89.97;84.95;;;;;;;13.76;73.83;101952.47;5003360;28;103963;-50
2022/11/15 03:23:09;;;;;;;88.20;83.28;;;;;;;13.77;73.97;101954.94;5006120;28;102425;-50
2022/11/15 03:25:41;;;;;;;82.55;77.95;;;;;;;13.76;73.86;101952.47;5003193;28;102584;-50
2022/11/15 03:28:12;;;;;;;84.05;79.32;;;;;;;13.76;73.58;101957.94;5009646;28;102201;-50
2022/11/15 03:30:39;;;;;;;84.25;79.63;;;;;;;13.75;73.88;101951.66;4993153;28;104132;-51
2022/11/15 03:33:08;;;;;;;80.97;76.38;;;;;;;13.76;73.78;101950.56;4999871;28;102642;-50
2022/11/15 03:35:40;;;;;;;82.57;78.07;;;;;;;13.78;73.90;101955.78;4994693;28;102921;-50
2022/11/15 03:38:11;;;;;;;80.78;76.38;;;;;;;13.77;73.79;101954.13;4999887;28;102063;-50
2022/11/15 03:40:41;;;;;;;83.47;78.97;;;;;;;13.77;73.68;101945.91;5001376;28;103916;-50
2022/11/15 03:43:15;;;;;;;86.60;81.78;;;;;;;13.76;73.79;101952.47;4992615;28;102189;-50
2022/11/15 03:45:46;;;;;;;82.85;78.15;;;;;;;13.77;73.69;101938.53;4995341;28;102297;-50
2022/11/15 03:48:18;;;;;;;88.93;83.93;;;;;;;13.76;73.74;101942.34;5001557;28;102111;-50
2022/11/15 03:50:46;;;;;;;83.97;79.15;;;;;;;13.76;73.90;101938.81;5002450;28;104783;-51
2022/11/15 03:53:12;;;;;;;79.82;75.35;;;;;;;13.74;73.99;101933.59;5005211;28;102440;-50
2022/11/15 03:55:39;;;;;;;88.60;83.50;;;;;;;13.76;73.91;101947.00;4998429;28;102488;-50
2022/11/15 03:58:06;;;;;;;87.25;82.35;;;;;;;13.77;73.76;101932.22;4994561;28;102336;-50
2022/11/15 04:00:33;;;;;;;83.65;78.97;;;;;;;13.77;73.68;101934.97;4984542;28;108014;-51
2022/11/15 04:02:59;;;;;;;81.30;76.63;;;;;;;13.76;73.68;101931.41;4981453;28;102644;-50
2022/11/15 04:05:27;;;;;;;80.78;76.35;;;;;;;13.76;73.75;101936.88;4975885;28;102143;-51
2022/11/15 04:07:54;;;;;;;81.13;76.43;;;;;;;13.77;73.85;101926.75;4983984;28;102316;-50
2022/11/15 04:10:21;;;;;;;83.97;78.95;;;;;;;13.78;73.70;101933.91;4997110;28;104097;-50
2022/11/15 04:12:48;;;;;;;83.85;79.07;;;;;;;13.77;73.62;101926.75;4997261;28;102311;-50
2022/11/15 04:15:17;;;;;;;84.95;80.22;;;;;;;13.77;73.83;101924.03;5005744;28;102133;-50
2022/11/15 04:17:45;;;;;;;86.80;81.85;;;;;;;13.74;73.84;101919.06;4999502;28;102619;-50
2022/11/15 04:25:51;;;;;;;80.17;75.67;;;;;;;13.72;73.71;101907.59;4997956;28;102232;-50
2022/11/15 04:28:18;;;;;;;81.65;77.03;;;;;;;13.73;73.74;101911.97;5004556;28;101950;-50
2022/11/15 04:30:45;;;;;;;90.03;85.00;;;;;;;13.72;73.54;101907.59;5001880;28;104068;-50
2022/11/15 04:33:12;;;;;;;84.35;79.57;;;;;;;13.74;73.76;101905.41;5002640;28;102363;-50
2022/11/15 04:35:39;;;;;;;95.47;90.18;;;;;;;13.73;73.78;101909.22;4999986;28;102263;-50
2022/11/15 04:38:08;;;;;;;84.22;79.50;;;;;;;13.75;73.61;101905.16;5005087;28;102272;-50
2022/11/15 04:40:35;;;;;;;85.78;80.88;;;;;;;13.74;73.64;101902.66;5000107;28;104337;-50
2022/11/15 04:43:03;;;;;;;91.32;86.32;;;;;;;13.73;73.49;101904.56;5005099;28;103529;-50
2022/11/15 04:45:30;;;;;;;84.50;79.60;;;;;;;13.75;73.57;101904.31;5004986;28;102058;-50
2022/11/15 04:47:57;;;;;;;83.72;79.00;;;;;;;13.73;73.50;101903.75;4998069;28;102319;-50
2022/11/15 04:50:23;;;;;;;90.90;85.80;;;;;;;13.74;73.57;101889.84;5008271;28;103859;-50
2022/11/15 04:52:52;;;;;;;88.07;83.22;;;;;;;13.73;73.44;101899.09;5013384;28;102372;-50
2022/11/15 04:55:20;;;;;;;90.05;85.10;;;;;;;13.73;73.55;101904.56;5012161;28;103846;-50
2022/11/15 04:57:47;;;;;;;89.18;84.22;;;;;;;13.72;73.64;101907.59;5001262;28;102815;-51
2022/11/15 05:00:16;;;;;;;84.25;79.55;;;;;;;13.74;73.52;101905.41;4997504;28;103991;-50
2022/11/15 05:05:29;;;;;;;89.07;84.05;;;;;;;13.74;73.57;101905.41;5003996;28;102336;-50
2022/11/15 05:07:55;;;;;;;88.07;83.15;;;;;;;13.72;73.74;101907.59;5011708;28;102131;-50
2022/11/15 05:10:23;;;;;;;82.40;77.72;;;;;;;13.74;73.57;101906.25;4995885;28;103918;-50
2022/11/15 05:12:50;;;;;;;86.20;81.53;;;;;;;13.74;73.57;101905.41;5001246;28;102470;-50
2022/11/15 05:15:16;;;;;;;86.35;81.60;;;;;;;13.73;73.66;101909.22;4998788;28;102068;-51
2022/11/15 05:17:43;;;;;;;90.13;85.18;;;;;;;13.72;73.63;101902.13;5009932;28;102306;-50
2022/11/15 05:20:10;;;;;;;86.15;81.18;;;;;;;13.73;73.68;101903.75;5007469;28;103942;-50
2022/11/15 05:22:37;;;;;;;88.65;83.75;;;;;;;13.74;73.46;101910.88;4998241;28;102483;-50
2022/11/15 05:25:07;;;;;;;79.97;75.47;;;;;;;13.73;73.44;101906.50;5001516;28;103204;-50
2022/11/15 05:27:35;;;;;;;89.32;84.35;;;;;;;13.74;73.57;101902.66;4996142;28;103019;-51
2022/11/15 05:30:01;;;;;;;88.25;83.28;;;;;;;13.73;73.51;101903.75;4996727;28;104241;-51
2022/11/15 05:32:28;;;;;;;84.63;79.93;;;;;;;13.72;73.63;101908.41;4996171;28;102231;-51
2022/11/15 05:34:56;;;;;;;83.95;79.28;;;;;;;13.72;73.51;101905.66;5003589;28;102779;-51
2022/11/15 05:37:23;;;;;;;82.75;78.10;;;;;;;13.75;73.51;101909.81;5000688;28;102453;-51
2022/11/15 05:39:50;;;;;;;89.57;84.63;;;;;;;13.72;73.63;101904.84;5004680;28;103912;-51
2022/11/15 05:42:16;;;;;;;88.85;83.93;;;;;;;13.72;73.64;101899.38;5005158;28;102454;-51
2022/11/15 05:44:48;;;;;;;82.90;78.32;;;;;;;13.72;73.62;101897.47;5012245;28;102622;-50
2022/11/15 05:47:18;;;;;;;92.05;86.90;;;;;;;13.72;73.79;101896.66;4996082;28;102096;-50
2022/11/15 05:49:47;;;;;;;85.07;80.28;;;;;;;13.72;73.48;101897.47;4999849;28;104000;-50
2022/11/15 05:52:16;;;;;;;;;;;;;;;13.72;73.68;101896.66;5006648;28;102338;-50
2022/11/15 05:54:43;;;;;;;83.63;79.07;;;;;;;13.72;73.81;101902.13;5006792;28;102188;-50
2022/11/15 05:57:10;;;;;;;86.40;81.65;;;;;;;13.70;73.52;101900.47;4996586;28;102512;-50
2022/11/15 05:59:38;;;;;;;80.60;75.93;;;;;;;13.69;73.71;101901.53;5008887;28;104188;-50
2022/11/15 06:02:06;;;;;;;86.25;81.13;;;;;;;13.70;73.53;101899.63;4995098;28;102413;-50
2022/11/15 06:04:33;;;;;;;;;;;;;;;13.69;73.84;101887.88;5005885;28;101990;-50
2022/11/15 06:07:00;;;;;;;76.63;72.28;;;;;;;13.72;73.65;101885.69;5007174;28;102214;-50
2022/11/15 06:09:26;;;;;;;91.53;86.45;;;;;;;13.71;73.52;101884.88;5001175;28;103901;-50
2022/11/15 06:11:55;;;;;;;85.45;80.68;;;;;;;13.72;73.63;101891.19;5003220;28;102401;-50
2022/11/15 06:14:22;;;;;;;91.22;86.05;;;;;;;13.72;73.54;101888.44;4998314;28;102668;-51
2022/11/15 06:16:49;;;;;;;84.78;80.22;;;;;;;13.70;73.64;101895.00;5003553;28;102108;-51
2022/11/15 06:19:17;;;;;;;87.00;82.10;;;;;;;13.72;73.56;101893.91;4996154;28;103874;-50
2022/11/15 06:21:43;;;;;;;90.88;85.90;;;;;;;13.71;73.79;101890.34;5008698;28;102084;-50
2022/11/15 06:24:10;;;;;;;90.38;85.40;;;;;;;13.73;73.72;101887.34;4997273;28;102135;-50
2022/11/15 06:26:37;;;;;;;85.63;80.95;;;;;;;13.70;73.64;101878.59;5004028;28;102442;-50
2022/11/15 06:29:04;;;;;;;91.20;86.15;;;;;;;13.70;73.88;101894.16;5003377;28;104026;-50
2022/11/15 06:31:31;;;;;;;88.60;83.75;;;;;;;13.72;73.76;101885.69;5006578;28;103250;-50
2022/11/15 06:33:58;;;;;;;86.30;81.47;;;;;;;13.71;73.64;101887.63;5008426;28;102166;-51
2022/11/15 06:36:26;;;;;;;79.60;75.15;;;;;;;13.72;73.54;101885.69;5003076;28;102306;-50
2022/11/15 06:38:52;;;;;;;84.35;79.68;;;;;;;13.73;73.43;101884.59;5010959;28;103844;-50
2022/11/15 06:41:20;;;;;;;85.28;80.55;;;;;;;13.70;73.66;101885.94;5008798;28;101988;-51
2022/11/15 06:43:47;;;;;;;88.50;83.60;;;;;;;13.70;73.64;101875.84;5000781;28;102385;-50
2022/11/15 06:46:13;;;;;;;87.05;82.22;;;;;;;13.72;73.71;101877.50;5007170;28;102811;-50
2022/11/15 06:48:40;;;;;;;85.15;80.30;;;;;;;13.69;73.59;101879.66;5012208;28;104063;-50
2022/11/15 06:51:07;;;;;;;86.10;81.30;;;;;;;13.72;73.48;101882.97;5009804;28;102086;-50
2022/11/15 06:53:37;;;;;;;90.60;85.60;;;;;;;13.72;73.69;101877.50;5010685;28;102459;-50
2022/11/15 06:56:06;;;;;;;86.30;81.40;;;;;;;13.73;73.86;101881.88;5004555;28;102147;-50
2022/11/15 06:58:36;;;;;;;89.82;84.88;;;;;;;13.72;73.82;101881.06;5007028;28;103931;-50
2022/11/15 07:01:04;;;;;;;88.93;83.82;;;;;;;13.70;73.69;101873.13;5005248;28;102113;-50
2022/11/15 07:03:34;;;;;;;87.13;82.20;;;;;;;13.71;73.30;101873.94;5001986;28;101857;-50
2022/11/15 07:06:01;;;;;;;85.30;80.45;;;;;;;13.72;73.57;101880.22;5001782;28;102808;-50
2022/11/15 07:08:31;;;;;;;87.40;82.47;;;;;;;13.71;73.67;101876.69;4999492;28;103699;-50
2022/11/15 07:11:01;;;;;;;89.50;84.38;;;;;;;13.70;73.64;101862.19;4997036;28;102241;-50
2022/11/15 07:13:32;;;;;;;89.43;84.30;;;;;;;13.73;73.54;101868.19;4991660;28;102514;-50
2022/11/15 07:16:02;;;;;;;87.68;82.78;;;;;;;13.70;73.96;101864.91;5005939;28;102290;-50
2022/11/15 07:18:34;;;;;;;83.72;79.03;;;;;;;13.72;73.63;101864.63;5004203;28;103997;-50
2022/11/15 07:21:02;;;;;;;87.57;82.70;;;;;;;13.69;73.68;101857.78;5008922;28;102663;-50
2022/11/15 07:23:29;;;;;;;89.32;84.28;;;;;;;13.72;73.72;101863.81;4999975;28;102094;-50
2022/11/15 07:25:57;;;;;;;87.45;82.40;;;;;;;13.69;73.72;101865.97;5002482;28;102548;-50
2022/11/15 07:28:25;;;;;;;83.80;78.90;;;;;;;13.71;73.96;101860.25;5006018;28;107879;-50
2022/11/15 07:30:52;;;;;;;90.78;85.65;;;;;;;13.73;73.83;101857.25;5001092;28;102455;-51
2022/11/15 07:33:19;;;;;;;85.93;80.95;;;;;;;13.69;73.74;101855.03;4994210;28;102527;-51
2022/11/15 07:35:50;;;;;;;82.63;77.83;;;;;;;13.70;73.75;101856.72;4997295;28;102589;-50
2022/11/15 07:38:19;;;;;;;;;;;;;;;13.70;73.95;101859.44;5004546;28;104183;-50
2022/11/15 07:40:46;;;;;;;81.75;76.80;;;;;;;13.72;73.71;101855.59;5010400;28;102511;-50
2022/11/15 07:43:13;;;;;;;86.38;81.35;;;;;;;13.72;74.26;101847.41;4998800;28;102064;-50
2022/11/15 07:45:44;;;;;;;88.35;83.03;;;;;;;13.73;73.82;101858.06;4999106;28;102247;-51
2022/11/15 07:48:10;;;;;;;84.28;79.38;;;;;;;13.73;73.96;101849.03;5010864;28;103871;-51
2022/11/15 07:50:41;;;;;;;93.57;87.97;;;;;;;13.74;73.54;101850.69;5004265;28;102190;-50
2022/11/15 07:53:09;;;;;;;85.22;80.15;;;;;;;13.73;73.88;101854.50;5002098;28;102247;-50
2022/11/15 07:55:37;;;;;;;84.15;79.32;;;;;;;13.70;73.97;101848.50;5008725;28;102334;-50
2022/11/15 07:58:05;;;;;;;83.85;79.05;;;;;;;13.73;73.81;101840.84;5010459;28;104102;-50
2022/11/15 08:00:33;;;;;;;94.07;88.63;;;;;;;13.72;73.95;101828.25;5002847;28;102351;-51
2022/11/15 08:03:06;;;;;;;92.15;86.85;;;;;;;13.72;73.69;101828.25;5008823;28;102727;-51
2022/11/15 08:05:34;;;;;;;89.55;84.38;;;;;;;13.72;73.95;101825.53;5004114;28;102523;-50
2022/11/15 08:08:01;;;;;;;92.20;86.45;;;;;;;13.72;73.79;101826.34;4999424;28;103944;-51
2022/11/15 08:10:28;;;;;;;93.57;88.10;;;;;;;13.70;74.06;101829.34;5002333;28;102298;-51
2022/11/15 08:12:59;;;;;;;90.47;85.18;;;;;;;13.70;74.06;101823.88;5005859;28;102084;-50
2022/11/15 08:15:27;;;;;;;83.50;78.50;;;;;;;13.72;73.84;101825.53;5011718;28;102860;-50
2022/11/15 08:17:55;;;;;;;98.43;92.65;;;;;;;13.71;73.78;101821.97;4998779;28;104078;-50
2022/11/15 08:20:24;;;;;;;96.03;90.38;;;;;;;13.72;74.06;101825.53;4999681;28;104851;-51
2022/11/15 08:22:51;;;;;;;91.00;85.55;;;;;;;13.72;73.77;101822.78;5006416;28;102772;-50
2022/11/15 08:25:17;;;;;;;87.13;81.88;;;;;;;13.70;74.08;101815.66;4997919;28;102789;-50
2022/11/15 08:27:45;;;;;;;91.53;86.00;;;;;;;13.73;73.88;101816.22;5001593;28;104089;-51
2022/11/15 08:30:13;;;;;;;88.25;83.05;;;;;;;13.72;73.93;101811.84;5000871;28;102544;-50
2022/11/15 08:32:40;;;;;;;87.68;82.40;;;;;;;13.70;73.97;101804.72;5004880;28;102477;-51
2022/11/15 08:35:07;;;;;;;85.25;80.07;;;;;;;13.72;74.01;101803.63;4996850;28;102196;-50
2022/11/15 08:37:35;;;;;;;89.22;84.07;;;;;;;13.72;73.75;101809.91;4996104;28;103955;-50
2022/11/15 08:40:03;;;;;;;85.72;80.70;;;;;;;13.72;73.89;101803.63;4999018;28;103140;-50
2022/11/15 08:42:29;;;;;;;96.35;90.50;;;;;;;13.73;74.02;101805.28;5005891;28;103212;-50
2022/11/15 08:44:56;;;;;;;93.43;87.88;;;;;;;13.70;73.93;101802.00;5004377;28;104552;-50
2022/11/15 08:47:23;;;;;;;91.05;85.75;;;;;;;13.72;73.97;101804.44;4994056;28;103983;-51
2022/11/15 08:49:50;;;;;;;87.00;81.82;;;;;;;13.72;73.95;101800.91;5000985;28;102230;-54
2022/11/15 08:52:16;;;;;;;88.45;83.32;;;;;;;13.72;73.91;101787.22;4999384;28;102097;-50
2022/11/15 08:54:44;;;;;;;88.30;83.10;;;;;;;13.70;74.02;101796.53;5001527;28;102721;-50
2022/11/15 08:57:11;;;;;;;83.13;78.03;;;;;;;13.70;74.07;101785.56;4998990;28;103933;-50
2022/11/15 08:59:37;;;;;;;89.35;83.97;;;;;;;13.71;74.01;101786.41;5004972;28;102608;-50
2022/11/15 09:02:04;;;;;;;85.15;80.18;;;;;;;13.75;74.06;101786.69;5010984;28;102600;-50
2022/11/15 09:04:31;;;;;;;90.22;85.00;;;;;;;13.73;73.88;101769.72;5007194;28;102218;-50
2022/11/15 09:06:58;;;;;;;88.57;83.47;;;;;;;13.75;74.01;101770.28;4995892;28;103881;-51
2022/11/15 09:09:25;;;;;;;87.07;82.00;;;;;;;13.76;73.99;101769.16;5006904;28;102543;-50
2022/11/15 09:11:53;;;;;;;87.30;82.22;;;;;;;13.77;74.03;101762.59;5007112;28;102266;-50
2022/11/15 09:14:20;;;;;;;91.45;85.97;;;;;;;13.77;73.93;101762.59;5010843;28;102545;-50
2022/11/15 09:16:46;;;;;;;88.35;83.15;;;;;;;13.77;73.95;101757.13;5006659;28;104045;-50
2022/11/15 09:19:14;;;;;;;87.13;82.00;;;;;;;13.77;74.03;101757.13;5005190;28;102369;-50
2022/11/15 09:21:41;;;;;;;89.25;83.82;;;;;;;13.79;73.97;101752.22;5006088;28;102373;-50
2022/11/15 09:24:08;;;;;;;84.25;78.95;;;;;;;13.78;74.19;101750.59;5004278;28;102425;-50
2022/11/15 09:26:36;;;;;;;;;;;;;;;13.80;74.29;101748.41;4997731;28;103954;-50
2022/11/15 09:29:04;;;;;;;81.65;76.60;;;;;;;13.79;74.15;101755.78;5002787;28;102693;-50
2022/11/15 09:31:31;;;;;;;86.10;81.00;;;;;;;13.81;74.02;101741.81;5003461;28;102466;-50
2022/11/15 09:33:59;;;;;;;91.95;86.32;;;;;;;13.79;74.03;101741.28;5002630;28;102608;-50
2022/11/15 09:36:26;;;;;;;89.15;83.88;;;;;;;13.79;74.18;101735.81;4999929;28;103992;-50
2022/11/15 09:38:53;;;;;;;88.18;82.72;;;;;;;13.80;74.00;101730.06;5008741;28;102825;-50
2022/11/15 09:41:31;;;;;;;89.72;84.47;;;;;;;13.78;74.05;101729.53;4999332;28;102825;-51
2022/11/15 09:44:16;;;;;;;85.93;80.60;;;;;;;13.79;74.10;101727.59;5000947;28;102416;-50
2022/11/15 09:46:52;;;;;;;83.20;78.18;;;;;;;13.76;73.98;101717.19;5000118;28;103937;-50
2022/11/15 09:49:19;;;;;;;86.40;81.25;;;;;;;13.77;74.22;101718.84;4999413;28;102660;-50
2022/11/15 09:51:49;;;;;;;88.97;83.43;;;;;;;13.77;74.24;101713.34;5005247;28;102401;-51
2022/11/15 09:54:25;;;;;;;84.88;79.38;;;;;;;13.77;74.11;101714.19;5013362;28;102251;-50
2022/11/15 09:56:52;;;;;;;89.50;84.07;;;;;;;13.77;74.08;101707.88;5003910;28;104448;-50
2022/11/15 09:59:45;;;;;;;84.35;79.22;;;;;;;13.76;74.25;101707.06;5005200;28;102229;-51
2022/11/15 10:02:30;;;;;;;86.75;81.55;;;;;;;13.76;74.13;101706.25;5000010;28;102537;-50
2022/11/15 10:05:00;;;;;;;85.93;80.80;;;;;;;13.77;74.04;101705.16;5003145;28;102806;-50
2022/11/15 10:07:35;;;;;;;87.47;82.15;;;;;;;13.76;74.01;101703.50;4999187;28;103934;-50
2022/11/15 10:10:13;;;;;;;84.28;79.07;;;;;;;13.78;74.21;101693.13;4999644;28;102120;-50
2022/11/15 10:12:43;;;;;;;91.93;86.30;;;;;;;13.78;74.17;101690.41;4998816;28;102340;-50
2022/11/15 10:15:22;;;;;;;89.75;84.32;;;;;;;13.78;74.15;101690.41;4999812;28;102645;-51
2022/11/15 10:18:08;;;;;;;86.05;80.95;;;;;;;13.81;73.88;101681.63;4998840;28;104028;-50
2022/11/15 10:20:46;;;;;;;80.05;75.35;;;;;;;13.77;74.05;101677.78;4998736;28;102506;-50
2022/11/15 10:23:16;;;;;;;84.00;78.65;;;;;;;13.80;74.07;101685.47;5000976;28;102042;-50
2022/11/15 10:25:43;;;;;;;85.50;80.35;;;;;;;13.77;74.15;101675.06;5001327;28;102221;-50
2022/11/15 10:28:16;;;;;;;87.32;81.85;;;;;;;13.78;74.20;101668.50;4998732;28;104099;-50
2022/11/15 10:30:46;;;;;;;84.85;79.65;;;;;;;13.78;74.12;101668.50;5001020;28;102232;-50
2022/11/15 10:33:25;;;;;;;87.85;82.65;;;;;;;13.77;74.27;101664.13;4998498;28;102182;-50
2022/11/15 10:36:24;;;;;;;86.18;80.90;;;;;;;13.80;74.15;101669.06;4999598;28;102437;-50
2022/11/15 10:38:53;;;;;;;89.40;84.05;;;;;;;13.78;74.15;101657.56;4998365;28;103853;-50
2022/11/15 10:41:31;;;;;;;87.95;82.78;;;;;;;13.78;74.19;101660.31;5000207;28;102366;-50
2022/11/15 10:44:23;;;;;;;78.00;73.43;;;;;;;13.77;74.21;101654.00;4998992;28;102348;-50
2022/11/15 10:47:21;;;;;;;89.80;84.50;;;;;;;13.78;74.20;101647.44;5000966;28;102229;-50
2022/11/15 10:49:55;;;;;;;79.18;74.35;;;;;;;13.77;74.16;101639.50;4998754;28;104308;-50
2022/11/15 10:52:22;;;;;;;85.30;80.07;;;;;;;13.79;74.38;101634.59;5000712;28;102430;-50
2022/11/15 10:54:55;;;;;;;83.63;78.50;;;;;;;13.77;74.19;101623.91;4998892;28;102513;-50
2022/11/15 10:57:24;;;;;;;78.72;73.85;;;;;;;13.79;74.32;101629.94;5000511;28;102941;-50
2022/11/15 10:59:54;;;;;;;82.82;77.88;;;;;;;13.78;74.37;101625.56;5001109;28;103996;-50
2022/11/15 11:02:43;;;;;;;83.80;78.80;;;;;;;13.80;74.38;101628.81;4999973;28;102790;-50
2022/11/15 11:05:26;;;;;;;80.95;75.95;;;;;;;13.78;74.36;101611.06;4999202;28;102432;-50
2022/11/15 11:07:58;;;;;;;84.18;79.25;;;;;;;13.78;74.32;101616.53;4999781;28;102734;-50
2022/11/15 11:10:25;;;;;;;80.60;75.78;;;;;;;13.80;74.31;101606.13;5001120;28;103939;-50
2022/11/15 11:12:52;;;;;;;83.40;78.30;;;;;;;13.80;74.37;101603.38;5002751;28;102326;-50
2022/11/15 11:15:22;;;;;;;80.75;75.70;;;;;;;13.79;74.60;101597.09;5002354;28;102830;-50
2022/11/15 11:18:00;;;;;;;74.90;70.30;;;;;;;13.81;74.47;101588.59;5004193;28;102366;-50
2022/11/15 11:20:33;;;;;;;72.75;68.30;;;;;;;13.82;74.69;101584.81;5000787;28;108082;-51
2022/11/15 11:23:14;;;;;;;79.43;74.78;;;;;;;13.81;74.58;101583.13;5003952;28;102624;-50
2022/11/15 11:25:51;;;;;;;76.60;72.18;;;;;;;13.81;74.48;101577.66;5002355;28;102563;-50